createdAt,value
2023-03-31T00:01:04.592Z,6.93
2023-03-31T00:04:09.771Z,9.27
2023-03-31T00:07:16.879Z,9.90
2023-03-31T00:10:20.089Z,6.47
2023-03-31T00:13:26.367Z,5.70
2023-03-31T00:16:30.442Z,9.10
2023-03-31T00:19:34.072Z,5.50
2023-03-31T00:22:42.093Z,7.03
2023-03-31T00:25:46.302Z,8.53
2023-03-31T00:28:52.423Z,8.43
2023-03-31T00:31:57.285Z,5.00
2023-03-31T00:35:02.355Z,7.93
2023-03-31T00:38:08.999Z,9.50
2023-03-31T00:41:12.206Z,4.77
2023-03-31T00:44:22.644Z,6.90
2023-03-31T00:47:28.085Z,5.30
2023-03-31T00:50:36.972Z,8.40
2023-03-31T00:53:43.511Z,6.27
2023-03-31T00:56:49.949Z,6.93
2023-03-31T00:59:58.470Z,7.97
2023-03-31T01:03:10.105Z,7.33
2023-03-31T01:06:19.716Z,6.57
2023-03-31T01:09:26.824Z,7.17
2023-03-31T01:12:32.833Z,10.10
2023-03-31T01:15:36.297Z,7.63
2023-03-31T01:18:40.082Z,6.27
2023-03-31T01:22:46.827Z,5.17
2023-03-31T01:26:45.482Z,5.17
2023-03-31T01:30:38.320Z,7.67
2023-03-31T01:34:24.780Z,7.47
2023-03-31T01:38:31.399Z,7.33
2023-03-31T01:41:57.132Z,7.57
2023-03-31T01:45:12.286Z,7.03
2023-03-31T01:48:18.660Z,8.47
2023-03-31T01:51:33.283Z,7.70
2023-03-31T01:54:43.169Z,9.47
2023-03-31T01:57:52.166Z,6.07
2023-03-31T02:01:02.056Z,10.13
2023-03-31T02:04:13.201Z,6.70
2023-03-31T02:07:20.709Z,4.70
2023-03-31T02:10:27.474Z,6.53
2023-03-31T02:13:41.490Z,10.20
2023-03-31T02:16:48.043Z,5.67
2023-03-31T02:19:54.568Z,4.50
2023-03-31T02:23:03.455Z,6.47
2023-03-31T02:26:12.280Z,5.17
2023-03-31T02:29:16.990Z,4.17
2023-03-31T02:32:25.665Z,12.07
2023-03-31T02:35:30.784Z,8.63
2023-03-31T02:38:38.706Z,4.10
2023-03-31T02:41:42.952Z,5.47
2023-03-31T02:44:50.608Z,5.13
2023-03-31T02:47:53.976Z,6.10
2023-03-31T02:51:35.474Z,5.00
2023-03-31T02:55:04.468Z,12.60
2023-03-31T02:58:36.042Z,7.07
2023-03-31T03:01:53.638Z,3.43
2023-03-31T03:05:13.658Z,6.73
2023-03-31T03:08:37.989Z,6.47
2023-03-31T03:11:52.897Z,6.27
2023-03-31T03:15:01.735Z,6.13
2023-03-31T03:18:07.830Z,6.03
2023-03-31T03:21:11.037Z,9.53
2023-03-31T03:24:14.449Z,6.83
2023-03-31T03:27:17.411Z,8.70
2023-03-31T03:30:20.914Z,10.43
2023-03-31T03:33:28.207Z,7.00
2023-03-31T03:36:33.090Z,5.63
2023-03-31T03:39:38.643Z,3.57
2023-03-31T03:42:41.645Z,5.43
2023-03-31T03:45:49.376Z,8.77
2023-03-31T03:48:53.773Z,8.40
2023-03-31T03:51:57.828Z,6.43
2023-03-31T03:55:02.868Z,8.20
2023-03-31T03:58:06.851Z,6.90
2023-03-31T04:01:10.590Z,4.17
2023-03-31T04:04:18.291Z,3.80
2023-03-31T04:07:21.334Z,6.17
2023-03-31T04:10:24.511Z,8.83
2023-03-31T04:13:29.786Z,6.70
2023-03-31T04:16:34.579Z,7.97
2023-03-31T04:19:50.765Z,6.40
2023-03-31T04:22:58.142Z,6.93
2023-03-31T04:26:02.766Z,7.67
2023-03-31T04:29:07.472Z,5.23
2023-03-31T04:32:15.357Z,5.07
2023-03-31T04:35:20.884Z,9.30
2023-03-31T04:39:09.014Z,4.60
2023-03-31T04:42:12.329Z,5.77
2023-03-31T04:45:15.833Z,5.93
2023-03-31T04:48:19.066Z,7.50
2023-03-31T04:51:23.752Z,7.73
2023-03-31T04:54:26.782Z,5.23
2023-03-31T04:57:29.942Z,8.17
2023-03-31T05:00:43.241Z,6.47
2023-03-31T05:03:49.101Z,8.37
2023-03-31T05:06:53.975Z,6.93
2023-03-31T05:09:56.947Z,5.40
2023-03-31T05:12:59.905Z,7.40
2023-03-31T05:16:09.070Z,10.33
2023-03-31T05:19:14.285Z,5.20
2023-03-31T05:22:20.621Z,6.50
2023-03-31T05:25:24.147Z,14.43
2023-03-31T05:28:32.433Z,14.77
2023-03-31T05:31:35.961Z,9.60
2023-03-31T05:34:43.232Z,5.47
2023-03-31T05:37:47.590Z,8.47
2023-03-31T05:40:52.996Z,8.17
2023-03-31T05:43:56.397Z,8.50
2023-03-31T05:47:14.106Z,8.73
2023-03-31T05:50:17.914Z,11.37
2023-03-31T05:53:22.384Z,8.03
2023-03-31T05:56:27.732Z,11.03
2023-03-31T05:59:30.747Z,9.50
2023-03-31T06:02:34.637Z,7.10
2023-03-31T06:05:38.263Z,10.60
2023-03-31T06:08:43.944Z,6.60
2023-03-31T06:11:49.375Z,7.27
2023-03-31T06:14:53.400Z,12.03
2023-03-31T06:17:56.472Z,9.67
2023-03-31T06:21:00.254Z,12.33
2023-03-31T06:24:04.847Z,9.07
2023-03-31T06:27:08.135Z,9.47
2023-03-31T06:30:12.505Z,4.63
2023-03-31T06:33:16.462Z,10.03
2023-03-31T06:36:22.042Z,11.20
2023-03-31T06:39:28.622Z,8.77
2023-03-31T06:42:31.830Z,6.30
2023-03-31T06:45:34.948Z,8.73
2023-03-31T06:48:37.939Z,9.13
2023-03-31T06:51:40.917Z,10.67
2023-03-31T06:54:45.677Z,8.57
2023-03-31T06:57:48.823Z,6.77
2023-03-31T07:00:52.864Z,7.50
2023-03-31T07:03:55.988Z,7.90
2023-03-31T07:06:59.803Z,11.33
2023-03-31T07:10:10.430Z,8.10
2023-03-31T07:13:14.090Z,8.90
2023-03-31T07:16:17.169Z,10.20
2023-03-31T07:19:22.964Z,6.80
2023-03-31T07:22:28.915Z,7.97
2023-03-31T07:25:35.188Z,7.43
2023-03-31T07:28:38.329Z,9.40
2023-03-31T07:31:42.178Z,10.27
2023-03-31T07:34:45.367Z,9.63
2023-03-31T07:37:50.616Z,6.80
2023-03-31T07:41:07.738Z,9.57
2023-03-31T07:44:12.001Z,7.60
2023-03-31T07:47:15.295Z,6.67
2023-03-31T07:50:19.445Z,8.00
2023-03-31T07:53:27.509Z,11.13
2023-03-31T07:56:34.733Z,8.30
2023-03-31T07:59:37.913Z,9.60
2023-03-31T08:02:42.805Z,13.33
2023-03-31T08:05:46.143Z,7.27
2023-03-31T08:08:49.964Z,7.57
2023-03-31T08:11:54.294Z,8.57
2023-03-31T08:14:57.248Z,7.00
2023-03-31T08:18:00.428Z,8.47
2023-03-31T08:21:03.540Z,5.90
2023-03-31T08:24:08.431Z,7.50
2023-03-31T08:27:12.718Z,7.43
2023-03-31T08:30:16.197Z,4.87
2023-03-31T08:33:19.469Z,7.03
2023-03-31T08:36:22.954Z,6.73
2023-03-31T08:39:27.197Z,8.30
2023-03-31T08:42:40.692Z,9.17
2023-03-31T08:45:48.095Z,8.87
2023-03-31T08:48:54.170Z,7.65
2023-03-31T08:52:01.081Z,7.50
2023-03-31T08:55:13.610Z,8.97
2023-03-31T08:58:33.362Z,6.63
2023-03-31T09:01:54.515Z,5.53
2023-03-31T09:05:20.946Z,8.20
2023-03-31T09:08:36.549Z,7.73
2023-03-31T09:11:47.169Z,8.83
2023-03-31T09:14:58.995Z,5.60
2023-03-31T09:18:18.261Z,7.87
2023-03-31T09:21:27.502Z,5.70
2023-03-31T09:24:46.841Z,8.38
2023-03-31T09:27:51.622Z,5.78
2023-03-31T09:30:56.680Z,7.90
2023-03-31T09:34:03.453Z,10.73
2023-03-31T09:37:06.585Z,7.10
2023-03-31T09:40:18.491Z,6.95
2023-03-31T09:43:26.663Z,7.90
2023-03-31T09:46:34.438Z,7.13
2023-03-31T09:49:38.779Z,8.20
2023-03-31T09:52:45.402Z,8.15
2023-03-31T09:55:57.039Z,6.72
2023-03-31T09:59:03.386Z,9.10
2023-03-31T10:02:36.074Z,7.63
2023-03-31T10:05:41.315Z,6.93
2023-03-31T10:08:49.363Z,4.50
2023-03-31T10:11:58.822Z,6.45
2023-03-31T10:15:21.039Z,5.68
2023-03-31T10:18:35.788Z,6.13
2023-03-31T10:21:39.634Z,5.97
2023-03-31T10:24:45.433Z,11.50
2023-03-31T10:27:53.371Z,3.65
2023-03-31T10:31:03.157Z,6.97
2023-03-31T10:34:11.640Z,6.07
2023-03-31T10:37:20.363Z,5.00
2023-03-31T10:40:28.357Z,7.13
2023-03-31T10:43:39.750Z,5.50
2023-03-31T10:46:48.722Z,4.57
2023-03-31T10:49:58.281Z,7.03
2023-03-31T10:53:07.653Z,5.85
2023-03-31T10:56:35.048Z,6.82
2023-03-31T11:00:02.021Z,4.78
2023-03-31T11:03:46.512Z,6.43
2023-03-31T11:06:58.465Z,4.53
2023-03-31T11:10:22.143Z,10.23
2023-03-31T11:13:34.006Z,6.63
2023-03-31T11:16:47.817Z,4.73
2023-03-31T11:20:06.416Z,6.53
2023-03-31T11:23:19.475Z,5.00
2023-03-31T11:26:34.752Z,5.07
2023-03-31T11:29:45.051Z,6.70
2023-03-31T11:33:04.368Z,8.00
2023-03-31T11:36:26.140Z,5.77
2023-03-31T11:39:49.145Z,7.77
2023-03-31T11:42:56.479Z,7.50
2023-03-31T11:46:08.133Z,5.23
2023-03-31T11:49:23.529Z,7.57
2023-03-31T11:52:30.949Z,7.90
2023-03-31T11:55:37.248Z,7.87
2023-03-31T11:58:48.796Z,6.33
2023-03-31T12:02:02.716Z,6.57
2023-03-31T12:05:17.227Z,7.47
2023-03-31T12:08:32.143Z,6.63
2023-03-31T12:11:42.643Z,6.67
2023-03-31T12:14:52.807Z,5.20
2023-03-31T12:18:02.156Z,6.17
2023-03-31T12:21:07.241Z,10.85
2023-03-31T12:24:17.035Z,5.50
2023-03-31T12:27:27.684Z,7.78
2023-03-31T12:30:37.415Z,9.80
2023-03-31T12:33:54.575Z,8.57
2023-03-31T12:37:22.609Z,6.47
2023-03-31T12:40:56.107Z,8.70
2023-03-31T12:44:31.153Z,8.07
2023-03-31T12:48:08.644Z,5.37
2023-03-31T12:51:46.060Z,5.10
2023-03-31T12:55:22.756Z,3.63
2023-03-31T12:58:47.613Z,4.30
2023-03-31T13:02:29.868Z,3.03
2023-03-31T13:05:49.726Z,4.53
2023-03-31T13:09:01.090Z,5.13
2023-03-31T13:12:11.175Z,5.80
2023-03-31T13:15:15.733Z,6.27
2023-03-31T13:18:22.928Z,12.13
2023-03-31T13:21:28.523Z,5.43
2023-03-31T13:24:38.431Z,5.07
2023-03-31T13:27:53.440Z,8.27
2023-03-31T13:31:05.896Z,7.60
2023-03-31T13:34:10.320Z,6.20
2023-03-31T13:37:24.084Z,9.50
2023-03-31T13:40:51.708Z,8.53
2023-03-31T13:44:21.652Z,8.77
2023-03-31T13:48:06.501Z,6.53
2023-03-31T13:51:43.938Z,5.63
2023-03-31T13:55:41.068Z,5.13
2023-03-31T13:59:07.169Z,5.40
2023-03-31T14:02:44.202Z,6.13
2023-03-31T14:05:58.331Z,5.87
2023-03-31T14:09:07.803Z,6.07
2023-03-31T14:12:23.172Z,6.67
2023-03-31T14:15:26.344Z,5.40
2023-03-31T14:18:33.598Z,5.13
2023-03-31T14:21:43.685Z,5.27
2023-03-31T14:24:56.427Z,5.93
2023-03-31T14:28:32.477Z,5.07
2023-03-31T14:31:41.443Z,6.30
2023-03-31T14:34:58.142Z,5.20
2023-03-31T14:38:05.383Z,6.97
2023-03-31T14:41:21.178Z,4.60
2023-03-31T14:44:26.693Z,3.17
2023-03-31T14:47:32.023Z,4.50
2023-03-31T14:50:36.517Z,4.83
2023-03-31T14:53:39.915Z,4.13
2023-03-31T14:56:46.034Z,4.33
2023-03-31T14:59:51.919Z,4.40
2023-03-31T15:02:56.289Z,4.70
2023-03-31T15:06:04.903Z,4.20
2023-03-31T15:09:11.301Z,5.10
2023-03-31T15:12:16.958Z,4.87
2023-03-31T15:15:21.453Z,5.03
2023-03-31T15:18:27.950Z,4.17
2023-03-31T15:21:37.461Z,3.77
2023-03-31T15:24:40.899Z,4.33
2023-03-31T15:27:51.293Z,4.33
2023-03-31T15:31:06.929Z,4.03
2023-03-31T15:34:16.525Z,6.00
2023-03-31T15:37:27.891Z,5.90
2023-03-31T15:40:37.022Z,4.50
2023-03-31T15:43:49.027Z,8.13
2023-03-31T15:47:00.611Z,6.73
2023-03-31T15:50:13.879Z,6.20
2023-03-31T15:53:37.327Z,8.03
2023-03-31T15:56:45.467Z,5.13
2023-03-31T15:59:55.771Z,7.50
2023-03-31T16:03:01.875Z,5.80
2023-03-31T16:06:09.025Z,6.60
2023-03-31T16:09:17.399Z,7.10
2023-03-31T16:12:24.492Z,4.40
2023-03-31T16:15:36.256Z,7.53
2023-03-31T16:18:43.442Z,5.73
2023-03-31T16:21:52.555Z,6.77
2023-03-31T16:24:58.262Z,3.93
2023-03-31T16:28:02.785Z,3.87
2023-03-31T16:31:35.500Z,4.30
2023-03-31T16:34:54.510Z,4.93
2023-03-31T16:38:01.645Z,6.50
2023-03-31T16:41:07.588Z,6.63
2023-03-31T16:44:12.519Z,5.83
2023-03-31T16:47:34.032Z,3.50
2023-03-31T16:50:38.394Z,4.10
2023-03-31T16:53:41.892Z,4.00
2023-03-31T16:56:45.702Z,4.17
2023-03-31T16:59:49.534Z,4.00
2023-03-31T17:02:54.677Z,4.63
2023-03-31T17:05:59.582Z,4.10
2023-03-31T17:09:02.944Z,3.90
2023-03-31T17:12:06.481Z,3.33
2023-03-31T17:15:13.998Z,3.53
2023-03-31T17:18:18.483Z,3.90
2023-03-31T17:21:22.143Z,3.40
2023-03-31T17:24:25.335Z,4.97
2023-03-31T17:27:30.873Z,4.33
2023-03-31T17:30:38.656Z,5.27
2023-03-31T17:33:46.667Z,5.30
2023-03-31T17:36:52.265Z,6.33
2023-03-31T17:39:56.326Z,4.40
2023-03-31T17:42:59.898Z,4.60
2023-03-31T17:46:04.209Z,4.83
2023-03-31T17:49:12.611Z,5.23
2023-03-31T17:52:15.705Z,5.93
2023-03-31T17:55:19.169Z,5.13
2023-03-31T17:58:23.337Z,5.67
2023-03-31T18:01:27.314Z,5.20
2023-03-31T18:04:32.206Z,6.23
2023-03-31T18:07:38.557Z,7.93
2023-03-31T18:10:42.896Z,8.17
2023-03-31T18:13:46.130Z,8.53
2023-03-31T18:16:49.187Z,11.00
2023-03-31T18:19:53.479Z,13.63
2023-03-31T18:22:56.403Z,15.80
2023-03-31T18:25:59.656Z,14.80
2023-03-31T18:29:03.457Z,12.30
2023-03-31T18:32:06.671Z,12.97
2023-03-31T18:35:11.691Z,12.87
2023-03-31T18:38:16.475Z,9.37
2023-03-31T18:41:20.051Z,14.43
2023-03-31T18:44:23.212Z,10.87
2023-03-31T18:47:29.359Z,10.60
2023-03-31T18:50:34.017Z,9.37
2023-03-31T18:53:40.213Z,9.30
2023-03-31T18:56:43.794Z,9.20
2023-03-31T18:59:47.049Z,9.90
2023-03-31T19:02:50.214Z,12.47
2023-03-31T19:06:01.618Z,10.73
2023-03-31T19:09:06.150Z,11.97
2023-03-31T19:12:09.148Z,10.47
2023-03-31T19:15:12.375Z,9.83
2023-03-31T19:18:16.512Z,12.27
2023-03-31T19:21:21.936Z,12.37
2023-03-31T19:24:25.554Z,9.87
2023-03-31T19:27:28.543Z,12.17
2023-03-31T19:30:34.093Z,11.10
2023-03-31T19:33:37.423Z,13.03
2023-03-31T19:36:41.664Z,10.67
2023-03-31T19:39:44.568Z,14.90
2023-03-31T19:42:47.580Z,13.77
2023-03-31T19:45:53.211Z,16.43
2023-03-31T19:48:56.637Z,14.10
2023-03-31T19:52:00.929Z,11.93
2023-03-31T19:55:04.936Z,15.43
2023-03-31T19:58:07.918Z,13.50
2023-03-31T20:01:17.769Z,13.00
2023-03-31T20:04:20.977Z,14.20
2023-03-31T20:07:25.961Z,10.50
2023-03-31T20:10:29.266Z,13.47
2023-03-31T20:13:35.678Z,12.93
2023-03-31T20:16:38.704Z,12.97
2023-03-31T20:19:42.040Z,11.53
2023-03-31T20:22:46.685Z,14.10
2023-03-31T20:25:49.616Z,15.37
2023-03-31T20:28:55.909Z,14.00
2023-03-31T20:31:59.023Z,13.53
2023-03-31T20:35:02.615Z,13.83
2023-03-31T20:38:07.256Z,13.80
2023-03-31T20:41:10.972Z,14.73
2023-03-31T20:44:15.881Z,16.43
2023-03-31T20:47:19.174Z,16.93
2023-03-31T20:50:22.988Z,15.70
2023-03-31T20:53:27.324Z,15.30
2023-03-31T20:56:32.739Z,15.47
2023-03-31T20:59:35.815Z,15.07
2023-03-31T21:02:39.701Z,16.80
2023-03-31T21:05:44.119Z,13.97
2023-03-31T21:08:53.402Z,18.13
2023-03-31T21:11:56.385Z,18.60
2023-03-31T21:14:59.337Z,15.60
2023-03-31T21:18:02.308Z,14.90
2023-03-31T21:21:08.430Z,15.00
2023-03-31T21:24:14.286Z,12.77
2023-03-31T21:27:17.280Z,13.60
2023-03-31T21:30:21.366Z,10.37
2023-03-31T21:33:28.756Z,9.20
2023-03-31T21:36:31.814Z,9.30
2023-03-31T21:39:36.207Z,12.83
2023-03-31T21:42:39.353Z,10.03
2023-03-31T21:45:42.940Z,10.20
2023-03-31T21:48:48.594Z,10.60
2023-03-31T21:51:51.746Z,12.97
2023-03-31T21:54:56.273Z,8.33
2023-03-31T21:57:59.814Z,7.57
2023-03-31T22:01:05.175Z,7.23
2023-03-31T22:04:09.137Z,7.77
2023-03-31T22:07:14.326Z,6.87
2023-03-31T22:10:18.955Z,6.83
2023-03-31T22:13:23.972Z,8.40
2023-03-31T22:16:27.107Z,6.73
2023-03-31T22:19:31.644Z,6.30
2023-03-31T22:22:36.244Z,5.47
2023-03-31T22:25:40.761Z,5.43
2023-03-31T22:28:43.824Z,5.40
2023-03-31T22:31:46.968Z,4.87
2023-03-31T22:34:50.504Z,5.67
2023-03-31T22:37:53.794Z,5.77
2023-03-31T22:40:58.271Z,4.93
2023-03-31T22:44:01.274Z,4.40
2023-03-31T22:47:04.349Z,5.47
2023-03-31T22:50:08.525Z,5.90
2023-03-31T22:53:11.784Z,6.03
2023-03-31T22:56:16.179Z,5.20
2023-03-31T22:59:19.656Z,4.63
2023-03-31T23:02:22.864Z,5.97
2023-03-31T23:05:25.900Z,5.20
2023-03-31T23:08:32.008Z,6.47
2023-03-31T23:11:36.322Z,4.83
2023-03-31T23:14:39.622Z,5.90
2023-03-31T23:17:42.679Z,5.13
2023-03-31T23:20:46.602Z,5.53
2023-03-31T23:23:53.863Z,7.70
2023-03-31T23:26:58.248Z,5.23
2023-03-31T23:30:01.402Z,5.30
2023-03-31T23:33:04.597Z,8.00
2023-03-31T23:36:09.249Z,5.57
2023-03-31T23:39:13.150Z,5.73
2023-03-31T23:42:20.550Z,5.87
2023-03-31T23:45:23.865Z,6.20
2023-03-31T23:48:26.995Z,4.97
2023-03-31T23:51:30.472Z,5.07
2023-03-31T23:54:33.641Z,6.00
2023-03-31T23:57:38.163Z,5.30
